메인 페이지
METAR-TAF:

METAR-TAF

공항 :

Salak

마루아, 카메룬

위도: 10-27N, 경도: 014-15E, 고도: 423m

현재 날씨관측

예보는 47분 전, 16:00시(UTC)에 발표되었습니다.
여러 방향의 바람 6kt
온도 39°C
습도 30%
기압 1009 hPa
시정 10km 이상
고도 4000ft 상공 구름 조금
고도 5000ft 상공 구름 조금, 적란운.

METAR: FKKL 311600Z VRB06KT 9999 FEW040 FEW050CB 39/18 Q1009

시각: 17:47 (16:47 UTC)

예보

예보는 5 시간 47분 전, 11:00시(UTC)에 발표되었습니다.
예보 대상 시간: 31일 12시부터 31일 24시까지 (UTC)
8kt
시정 10km 이상
고도 4500ft 상공 구름 조금
확률 40% :
일시적
31일 14시부터 31일 18시까지 (UTC)
시정: 4000m
고도 3000ft 상공 구름 조금
고도 4000ft 상공 구름 조금, 적란운.
뇌우, 비

TAF: FKKL 311100Z 3112/3124 35008KT 9999 FEW045 PROB40 TEMPO 3114/3118 4000 TSRA FEW030 FEW040CB

4,000개 이상의 공항 관측 자료 및 예보 (METAR 및 TAF 보고).

지도상에서 검색 가능한 기상관측소가 노란 점과 빨간 점으로 표시되어 있습니다.

기상관측소 명을 보려면 표시 위로 마우스를 이동하세요.

날씨 관측과 예보를 보려면 클릭하세요.

지도 변경 : 확대하려면 엑스 표시가 있는 녹색 버튼, 축소하려면 빼기 표시가 있는 녹색 버튼, 다음 페이지의 지도를 보려면 녹색 화살표를 클릭하세요.


METAR-TAF: